createdAt,value
2022-08-05T00:00:59.146Z,0
2022-08-05T00:01:59.138Z,0
2022-08-05T00:02:59.131Z,0
2022-08-05T00:03:59.110Z,0
2022-08-05T00:04:59.116Z,0
2022-08-05T00:05:59.091Z,0
2022-08-05T00:06:59.093Z,0
2022-08-05T00:07:59.071Z,0
2022-08-05T00:08:59.062Z,0
2022-08-05T00:09:59.064Z,0
2022-08-05T00:10:59.041Z,0
2022-08-05T00:11:59.034Z,0
2022-08-05T00:12:59.018Z,0
2022-08-05T00:13:59.010Z,0
2022-08-05T00:14:58.999Z,0
2022-08-05T00:15:59.003Z,0
2022-08-05T00:16:58.978Z,0
2022-08-05T00:17:58.966Z,0
2022-08-05T00:18:58.956Z,0
2022-08-05T00:19:58.946Z,0
2022-08-05T00:20:58.931Z,0
2022-08-05T00:21:58.921Z,0
2022-08-05T00:22:58.919Z,0
2022-08-05T00:23:58.904Z,0
2022-08-05T00:24:58.939Z,0
2022-08-05T00:25:58.879Z,0
2022-08-05T00:26:58.866Z,0
2022-08-05T00:27:58.921Z,0
2022-08-05T00:28:58.850Z,0
2022-08-05T00:29:58.839Z,0
2022-08-05T00:30:58.844Z,0
2022-08-05T00:31:58.817Z,0
2022-08-05T00:32:58.800Z,0
2022-08-05T00:33:58.793Z,0
2022-08-05T00:34:58.796Z,0
2022-08-05T00:35:58.781Z,0
2022-08-05T00:36:58.762Z,0
2022-08-05T00:37:58.751Z,0
2022-08-05T00:38:58.741Z,0
2022-08-05T00:39:58.733Z,0
2022-08-05T00:40:58.720Z,0
2022-08-05T00:41:58.722Z,0
2022-08-05T00:42:58.696Z,0
2022-08-05T00:43:58.686Z,0
2022-08-05T00:44:58.677Z,0
2022-08-05T00:45:58.670Z,0
2022-08-05T00:46:58.661Z,0
2022-08-05T00:47:58.653Z,0
2022-08-05T00:48:58.637Z,0
2022-08-05T00:49:58.623Z,0
2022-08-05T00:50:58.617Z,0
2022-08-05T00:51:58.606Z,0
2022-08-05T00:52:58.589Z,0
2022-08-05T00:53:58.579Z,0
2022-08-05T00:54:58.576Z,0
2022-08-05T00:55:58.563Z,0
2022-08-05T00:56:58.545Z,0
2022-08-05T00:57:58.540Z,0
2022-08-05T00:58:58.532Z,0
2022-08-05T00:59:58.517Z,0
2022-08-05T01:00:58.501Z,0
2022-08-05T01:01:58.510Z,0
2022-08-05T01:02:58.486Z,0
2022-08-05T01:03:58.478Z,0
2022-08-05T01:04:58.464Z,0
2022-08-05T01:05:58.452Z,0
2022-08-05T01:06:58.442Z,0
2022-08-05T01:07:58.432Z,0
2022-08-05T01:08:58.426Z,0
2022-08-05T01:09:58.408Z,0
2022-08-05T01:10:58.426Z,0
2022-08-05T01:11:58.387Z,0
2022-08-05T01:12:58.378Z,0
2022-08-05T01:13:58.370Z,0
2022-08-05T01:14:58.369Z,0
2022-08-05T01:15:58.350Z,0
2022-08-05T01:16:58.338Z,0
2022-08-05T01:17:58.323Z,0
2022-08-05T01:18:58.310Z,0
2022-08-05T01:19:58.302Z,0
2022-08-05T01:20:58.346Z,0
2022-08-05T01:21:58.284Z,0
2022-08-05T01:22:58.277Z,0
2022-08-05T01:23:58.267Z,0
2022-08-05T01:24:58.246Z,0
2022-08-05T01:25:58.236Z,0
2022-08-05T01:26:58.228Z,0
2022-08-05T01:27:58.220Z,0
2022-08-05T01:28:58.209Z,0
2022-08-05T01:29:58.206Z,0
2022-08-05T01:30:58.190Z,0
2022-08-05T01:31:58.172Z,0
2022-08-05T01:32:58.163Z,0
2022-08-05T01:33:58.154Z,0
2022-08-05T01:34:58.173Z,0
2022-08-05T01:35:58.129Z,0
2022-08-05T01:36:58.125Z,0
2022-08-05T01:37:58.111Z,0
2022-08-05T01:38:58.103Z,0
2022-08-05T01:39:58.090Z,0
2022-08-05T01:40:58.086Z,0
2022-08-05T01:41:58.073Z,0
2022-08-05T01:42:58.053Z,0
2022-08-05T01:43:58.056Z,0
2022-08-05T01:44:58.082Z,0
2022-08-05T01:45:58.031Z,0
2022-08-05T01:46:58.019Z,0
2022-08-05T01:47:58.055Z,0
2022-08-05T01:48:57.995Z,0
2022-08-05T01:49:57.993Z,0
2022-08-05T01:50:57.969Z,0
2022-08-05T01:51:57.959Z,0
2022-08-05T01:52:57.957Z,0
2022-08-05T01:53:57.941Z,0
2022-08-05T01:54:58.645Z,0
2022-08-05T01:55:57.920Z,0
2022-08-05T01:56:57.905Z,0
2022-08-05T01:57:57.893Z,0
2022-08-05T01:58:57.895Z,0
2022-08-05T01:59:57.879Z,0
2022-08-05T02:00:57.860Z,0
2022-08-05T02:01:57.849Z,0
2022-08-05T02:02:57.846Z,0
2022-08-05T02:03:57.829Z,0
2022-08-05T02:04:57.988Z,0
2022-08-05T02:05:57.809Z,0
2022-08-05T02:06:57.799Z,0
2022-08-05T02:07:57.805Z,0
2022-08-05T02:08:57.773Z,0
2022-08-05T02:09:57.758Z,0
2022-08-05T02:10:57.770Z,0
2022-08-05T02:11:57.742Z,0
2022-08-05T02:12:57.734Z,0
2022-08-05T02:13:57.721Z,0
2022-08-05T02:14:57.707Z,0
2022-08-05T02:15:57.700Z,0
2022-08-05T02:16:57.688Z,0
2022-08-05T02:17:57.677Z,0
2022-08-05T02:18:57.678Z,0
2022-08-05T02:19:57.654Z,0
2022-08-05T02:20:57.650Z,0
2022-08-05T02:21:57.627Z,0
2022-08-05T02:22:57.630Z,0
2022-08-05T02:23:57.612Z,0
2022-08-05T02:24:57.600Z,0
2022-08-05T02:25:57.594Z,0
2022-08-05T02:26:57.574Z,0
2022-08-05T02:27:57.639Z,0
2022-08-05T02:28:57.548Z,0
2022-08-05T02:29:57.538Z,0
2022-08-05T02:30:57.530Z,0
2022-08-05T02:31:57.535Z,0
2022-08-05T02:32:57.507Z,0
2022-08-05T02:33:57.500Z,0
2022-08-05T02:34:57.489Z,0
2022-08-05T02:35:57.477Z,0
2022-08-05T02:36:57.459Z,0
2022-08-05T02:37:57.722Z,0
2022-08-05T02:38:57.439Z,0
2022-08-05T02:39:57.436Z,0
2022-08-05T02:40:57.419Z,0
2022-08-05T02:41:57.406Z,0
2022-08-05T02:42:57.396Z,0
2022-08-05T02:43:57.388Z,0
2022-08-05T02:44:57.384Z,0
2022-08-05T02:45:57.364Z,0
2022-08-05T02:46:57.349Z,0
2022-08-05T02:47:57.343Z,0
2022-08-05T02:48:57.330Z,0
2022-08-05T02:49:57.327Z,0
2022-08-05T02:50:57.306Z,0
2022-08-05T02:51:57.296Z,0
2022-08-05T02:52:57.289Z,0
2022-08-05T02:53:57.284Z,0
2022-08-05T02:54:57.262Z,0
2022-08-05T02:55:57.257Z,0
2022-08-05T02:56:57.238Z,0
2022-08-05T02:57:57.226Z,0
2022-08-05T02:58:57.241Z,0
2022-08-05T02:59:57.207Z,0
2022-08-05T03:00:57.199Z,0
2022-08-05T03:01:57.197Z,0
2022-08-05T03:02:57.176Z,0
2022-08-05T03:03:57.166Z,0
2022-08-05T03:04:57.156Z,0
2022-08-05T03:05:57.140Z,0
2022-08-05T03:06:57.128Z,0
2022-08-05T03:07:57.119Z,0
2022-08-05T03:08:57.113Z,0
2022-08-05T03:09:57.105Z,0
2022-08-05T03:10:57.085Z,0
2022-08-05T03:11:57.081Z,0
2022-08-05T03:13:57.052Z,0
2022-08-05T03:14:57.048Z,0
2022-08-05T03:15:57.032Z,0
2022-08-05T03:16:57.026Z,0
2022-08-05T03:17:57.005Z,0
2022-08-05T03:18:57.003Z,0
2022-08-05T03:19:56.994Z,0
2022-08-05T03:20:56.982Z,0
2022-08-05T03:21:56.972Z,0
2022-08-05T03:22:56.954Z,0
2022-08-05T03:23:56.946Z,0
2022-08-05T03:24:56.993Z,0
2022-08-05T03:25:56.920Z,0
2022-08-05T03:26:56.916Z,0
2022-08-05T03:27:56.924Z,0
2022-08-05T03:28:56.887Z,0
2022-08-05T03:29:56.878Z,0
2022-08-05T03:30:56.870Z,0
2022-08-05T03:31:56.858Z,0
2022-08-05T03:32:56.845Z,0
2022-08-05T03:33:56.829Z,0
2022-08-05T03:34:56.984Z,0
2022-08-05T03:35:56.806Z,0
2022-08-05T03:36:56.803Z,0
2022-08-05T03:37:56.796Z,0
2022-08-05T03:38:56.781Z,0
2022-08-05T03:39:56.766Z,0
2022-08-05T03:40:56.756Z,0
2022-08-05T03:41:56.745Z,0
2022-08-05T03:42:56.738Z,0
2022-08-05T03:43:56.727Z,0
2022-08-05T03:44:56.723Z,0
2022-08-05T03:45:56.701Z,0
2022-08-05T03:46:56.701Z,0
2022-08-05T03:47:56.685Z,0
2022-08-05T03:48:56.663Z,0
2022-08-05T03:49:56.659Z,0
2022-08-05T03:50:56.647Z,0
2022-08-05T03:51:56.634Z,0
2022-08-05T03:52:56.636Z,0
2022-08-05T03:53:56.621Z,0
2022-08-05T03:54:56.598Z,0
2022-08-05T03:55:56.594Z,0
2022-08-05T03:56:56.596Z,0
2022-08-05T03:57:56.590Z,0
2022-08-05T03:58:56.565Z,0
2022-08-05T03:59:56.562Z,0
2022-08-05T04:00:56.539Z,0
2022-08-05T04:01:56.540Z,0
2022-08-05T04:02:56.511Z,0
2022-08-05T04:03:56.504Z,0
2022-08-05T04:04:56.509Z,0
2022-08-05T04:05:56.481Z,0
2022-08-05T04:06:56.479Z,0
2022-08-05T04:07:56.461Z,0
2022-08-05T04:08:56.447Z,0
2022-08-05T04:09:56.439Z,0
2022-08-05T04:10:56.431Z,0
2022-08-05T04:11:56.415Z,0
2022-08-05T04:12:56.407Z,0
2022-08-05T04:13:56.393Z,0
2022-08-05T04:14:56.388Z,0
2022-08-05T04:15:56.377Z,0
2022-08-05T04:16:56.374Z,0
2022-08-05T04:17:56.356Z,0
2022-08-05T04:18:56.353Z,0
2022-08-05T04:19:56.324Z,0
2022-08-05T04:20:56.320Z,0
2022-08-05T04:21:56.311Z,0
2022-08-05T04:22:56.294Z,0
2022-08-05T04:23:56.283Z,5.62
2022-08-05T04:24:56.272Z,5.62
2022-08-05T04:25:56.265Z,5.62
2022-08-05T04:26:56.264Z,5.62
2022-08-05T04:27:56.249Z,5.62
2022-08-05T04:28:56.229Z,5.62
2022-08-05T04:29:56.221Z,5.62
2022-08-05T04:30:56.207Z,5.62
2022-08-05T04:31:56.197Z,5.62
2022-08-05T04:32:56.185Z,5.62
2022-08-05T04:33:56.195Z,5.62
2022-08-05T04:34:56.164Z,5.62
2022-08-05T04:35:56.159Z,5.62
2022-08-05T04:36:56.154Z,5.62
2022-08-05T04:37:56.131Z,5.62
2022-08-05T04:38:56.123Z,5.62
2022-08-05T04:39:56.112Z,5.62
2022-08-05T04:40:56.104Z,5.62
2022-08-05T04:41:56.097Z,5.62
2022-08-05T04:42:56.081Z,11.25
2022-08-05T04:43:56.069Z,11.25
2022-08-05T04:44:56.063Z,11.25
2022-08-05T04:45:56.061Z,11.25
2022-08-05T04:46:56.034Z,11.25
2022-08-05T04:47:56.027Z,11.25
2022-08-05T04:48:56.017Z,11.25
2022-08-05T04:49:56.011Z,5.62
2022-08-05T04:50:56.006Z,5.62
2022-08-05T04:51:55.983Z,5.62
2022-08-05T04:52:55.982Z,5.62
2022-08-05T04:53:55.965Z,5.62
2022-08-05T04:54:55.954Z,5.62
2022-08-05T04:55:55.942Z,5.62
2022-08-05T04:56:55.954Z,5.62
2022-08-05T04:57:55.926Z,5.62
2022-08-05T04:58:55.917Z,5.62
2022-08-05T04:59:55.910Z,5.62
2022-08-05T05:00:55.892Z,5.62
2022-08-05T05:01:55.915Z,5.62
2022-08-05T05:02:55.873Z,5.62
2022-08-05T05:03:55.868Z,5.62
2022-08-05T05:04:55.856Z,5.62
2022-08-05T05:05:55.842Z,5.62
2022-08-05T05:06:55.829Z,0
2022-08-05T05:07:55.818Z,0
2022-08-05T05:08:55.814Z,0
2022-08-05T05:09:55.802Z,0
2022-08-05T05:10:55.802Z,0
2022-08-05T05:11:55.782Z,0
2022-08-05T05:12:55.766Z,0
2022-08-05T05:13:55.754Z,0
2022-08-05T05:14:55.754Z,0
2022-08-05T05:15:55.738Z,0
2022-08-05T05:16:55.737Z,0
2022-08-05T05:17:55.716Z,0
2022-08-05T05:18:55.705Z,0
2022-08-05T05:19:55.697Z,0
2022-08-05T05:20:55.684Z,5.62
2022-08-05T05:21:55.675Z,5.62
2022-08-05T05:22:55.680Z,5.62
2022-08-05T05:23:55.658Z,5.62
2022-08-05T05:24:55.647Z,5.62
2022-08-05T05:25:55.646Z,5.62
2022-08-05T05:26:55.624Z,5.62
2022-08-05T05:27:55.612Z,5.62
2022-08-05T05:28:55.597Z,5.62
2022-08-05T05:29:55.595Z,5.62
2022-08-05T05:30:55.580Z,5.62
2022-08-05T05:31:55.571Z,5.62
2022-08-05T05:32:55.565Z,11.25
2022-08-05T05:33:55.553Z,11.25
2022-08-05T05:34:55.538Z,11.25
2022-08-05T05:35:55.534Z,11.25
2022-08-05T05:36:55.520Z,11.25
2022-08-05T05:37:55.502Z,11.25
2022-08-05T05:38:55.501Z,11.25
2022-08-05T05:39:55.483Z,5.62
2022-08-05T05:40:55.474Z,5.62
2022-08-05T05:41:55.470Z,5.62
2022-08-05T05:42:55.458Z,5.62
2022-08-05T05:43:55.462Z,5.62
2022-08-05T05:44:55.430Z,11.25
2022-08-05T05:45:55.425Z,11.25
2022-08-05T05:46:55.423Z,11.25
2022-08-05T05:47:55.400Z,11.25
2022-08-05T05:48:55.393Z,11.25
2022-08-05T05:49:55.376Z,11.25
2022-08-05T05:50:55.625Z,11.25
2022-08-05T05:51:55.377Z,11.25
2022-08-05T05:52:55.376Z,11.25
2022-08-05T05:53:55.335Z,11.25
2022-08-05T05:54:55.336Z,11.25
2022-08-05T05:56:03.066Z,11.25
2022-08-05T05:56:55.314Z,11.25
2022-08-05T05:57:55.290Z,11.25
2022-08-05T05:58:55.284Z,11.25
2022-08-05T05:59:55.279Z,11.25
2022-08-05T06:00:55.261Z,11.25
2022-08-05T06:01:55.249Z,11.25
2022-08-05T06:02:55.243Z,11.25
2022-08-05T06:03:55.236Z,16.88
2022-08-05T06:04:55.219Z,16.88
2022-08-05T06:05:55.208Z,16.88
2022-08-05T06:06:55.197Z,16.88
2022-08-05T06:07:55.190Z,16.88
2022-08-05T06:08:55.181Z,16.88
2022-08-05T06:09:55.166Z,16.88
2022-08-05T06:10:55.156Z,16.88
2022-08-05T06:11:55.144Z,16.88
2022-08-05T06:12:55.131Z,16.88
2022-08-05T06:13:55.124Z,16.88
2022-08-05T06:14:55.124Z,16.88
2022-08-05T06:15:55.126Z,22.5
2022-08-05T06:16:55.105Z,22.5
2022-08-05T06:17:55.091Z,22.5
2022-08-05T06:18:55.071Z,28.12
2022-08-05T06:19:55.062Z,28.12
2022-08-05T06:20:55.050Z,28.12
2022-08-05T06:21:55.044Z,33.75
2022-08-05T06:22:55.034Z,33.75
2022-08-05T06:23:55.026Z,39.38
2022-08-05T06:24:55.005Z,39.38
2022-08-05T06:25:55.002Z,45
2022-08-05T06:26:54.981Z,45
2022-08-05T06:27:54.976Z,50.62
2022-08-05T06:28:54.964Z,50.62
2022-08-05T06:29:54.959Z,56.25
2022-08-05T06:30:54.942Z,56.25
2022-08-05T06:31:54.947Z,61.88
2022-08-05T06:32:54.918Z,61.88
2022-08-05T06:33:54.908Z,61.88
2022-08-05T06:34:54.902Z,56.25
2022-08-05T06:35:54.915Z,56.25
2022-08-05T06:36:54.883Z,50.62
2022-08-05T06:37:54.874Z,45
2022-08-05T06:38:54.897Z,39.38
2022-08-05T06:39:54.847Z,39.38
2022-08-05T06:40:54.835Z,33.75
2022-08-05T06:41:54.829Z,33.75
2022-08-05T06:42:54.820Z,33.75
2022-08-05T06:43:54.810Z,28.12
2022-08-05T06:44:54.793Z,28.12
2022-08-05T06:45:54.783Z,28.12
2022-08-05T06:46:54.785Z,28.12
2022-08-05T06:47:54.761Z,33.75
2022-08-05T06:48:54.753Z,39.38
2022-08-05T06:49:54.740Z,45
2022-08-05T06:50:54.731Z,45
2022-08-05T06:51:54.734Z,45
2022-08-05T06:52:54.723Z,45
2022-08-05T06:53:54.699Z,39.38
2022-08-05T06:54:54.685Z,33.75
2022-08-05T06:55:54.674Z,28.12
2022-08-05T06:56:54.668Z,33.75
2022-08-05T06:57:54.654Z,33.75
2022-08-05T06:58:54.653Z,39.38
2022-08-05T06:59:54.637Z,39.38
2022-08-05T07:00:54.631Z,39.38
2022-08-05T07:01:54.617Z,39.38
2022-08-05T07:02:54.613Z,39.38
2022-08-05T07:03:54.600Z,39.38
2022-08-05T07:04:54.585Z,39.38
2022-08-05T07:05:54.575Z,39.38
2022-08-05T07:06:54.576Z,45
2022-08-05T07:07:54.576Z,56.25
2022-08-05T07:08:54.632Z,61.88
2022-08-05T07:09:54.542Z,73.12
2022-08-05T07:10:54.519Z,73.12
2022-08-05T07:11:54.513Z,73.12
2022-08-05T07:12:54.522Z,78.75
2022-08-05T07:13:54.493Z,78.75
2022-08-05T07:14:54.483Z,84.38
2022-08-05T07:15:54.484Z,90
2022-08-05T07:16:54.453Z,90
2022-08-05T07:17:54.445Z,90
2022-08-05T07:18:54.435Z,84.38
2022-08-05T07:20:54.415Z,78.75
2022-08-05T07:21:54.454Z,78.75
2022-08-05T07:22:54.405Z,78.75
2022-08-05T07:23:54.382Z,73.12
2022-08-05T07:24:54.381Z,73.12
2022-08-05T07:25:54.359Z,73.12
2022-08-05T07:26:54.353Z,78.75
2022-08-05T07:27:54.334Z,78.75
2022-08-05T07:28:54.327Z,78.75
2022-08-05T07:29:54.321Z,73.12
2022-08-05T07:30:54.345Z,73.12
2022-08-05T07:31:54.293Z,73.12
2022-08-05T07:32:54.283Z,73.12
2022-08-05T07:33:54.268Z,73.12
2022-08-05T07:34:54.265Z,73.12
2022-08-05T07:35:54.252Z,67.5
2022-08-05T07:36:54.254Z,67.5
2022-08-05T07:37:54.230Z,61.88
2022-08-05T07:38:54.216Z,67.5
2022-08-05T07:39:54.214Z,67.5
2022-08-05T07:40:54.204Z,73.12
2022-08-05T07:41:54.209Z,78.75
2022-08-05T07:42:54.176Z,78.75
2022-08-05T07:43:54.212Z,78.75
2022-08-05T07:44:54.160Z,78.75
2022-08-05T07:45:54.136Z,73.12
2022-08-05T07:46:54.140Z,73.12
2022-08-05T07:47:54.210Z,78.75
2022-08-05T07:48:54.110Z,78.75
2022-08-05T07:49:54.096Z,78.75
2022-08-05T07:50:54.100Z,73.12
2022-08-05T07:51:54.076Z,73.12
2022-08-05T07:52:54.067Z,67.5
2022-08-05T07:53:54.051Z,73.12
2022-08-05T07:54:54.041Z,78.75
2022-08-05T07:55:54.033Z,78.75
2022-08-05T07:56:54.024Z,78.75
2022-08-05T07:57:54.018Z,78.75
2022-08-05T07:58:53.998Z,78.75
2022-08-05T07:59:54.027Z,78.75
2022-08-05T08:00:53.978Z,95.62
2022-08-05T08:01:53.995Z,106.88
2022-08-05T08:02:53.957Z,101.25
2022-08-05T08:03:53.950Z,95.62
2022-08-05T08:04:53.949Z,95.62
2022-08-05T08:05:53.925Z,101.25
2022-08-05T08:06:53.913Z,106.88
2022-08-05T08:07:53.905Z,112.5
2022-08-05T08:08:53.889Z,118.12
2022-08-05T08:09:53.905Z,112.5
2022-08-05T08:10:53.873Z,95.62
2022-08-05T08:11:53.865Z,101.25
2022-08-05T08:12:53.874Z,101.25
2022-08-05T08:13:53.834Z,90
2022-08-05T08:14:53.826Z,84.38
2022-08-05T08:15:53.813Z,90
2022-08-05T08:16:53.809Z,90
2022-08-05T08:17:53.791Z,90
2022-08-05T08:18:53.785Z,101.25
2022-08-05T08:19:53.776Z,106.88
2022-08-05T08:20:53.761Z,106.88
2022-08-05T08:21:53.745Z,101.25
2022-08-05T08:22:53.732Z,90
2022-08-05T08:23:53.725Z,90
2022-08-05T08:24:53.725Z,90
2022-08-05T08:25:53.704Z,90
2022-08-05T08:26:53.697Z,90
2022-08-05T08:27:53.682Z,78.75
2022-08-05T08:28:53.674Z,84.38
2022-08-05T08:29:53.663Z,90
2022-08-05T08:30:53.647Z,95.62
2022-08-05T08:31:53.687Z,95.62
2022-08-05T08:32:53.638Z,95.62
2022-08-05T08:33:53.614Z,95.62
2022-08-05T08:34:53.625Z,84.38
2022-08-05T08:35:53.591Z,78.75
2022-08-05T08:36:53.581Z,84.38
2022-08-05T08:37:53.626Z,78.75
2022-08-05T08:38:53.563Z,78.75
2022-08-05T08:39:53.559Z,78.75
2022-08-05T08:40:53.548Z,84.38
2022-08-05T08:41:53.528Z,90
2022-08-05T08:42:53.544Z,84.38
2022-08-05T08:43:53.513Z,84.38
2022-08-05T08:44:53.506Z,78.75
2022-08-05T08:45:53.485Z,78.75
2022-08-05T08:46:53.492Z,78.75
2022-08-05T08:47:53.461Z,78.75
2022-08-05T08:48:53.461Z,73.12
2022-08-05T08:49:53.465Z,78.75
2022-08-05T08:50:53.434Z,67.5
2022-08-05T08:51:53.419Z,56.25
2022-08-05T08:52:53.414Z,61.88
2022-08-05T08:53:53.397Z,61.88
2022-08-05T08:54:53.390Z,61.88
2022-08-05T08:55:53.388Z,61.88
2022-08-05T08:56:53.365Z,56.25
2022-08-05T08:57:53.365Z,56.25
2022-08-05T08:58:53.341Z,56.25
2022-08-05T08:59:53.442Z,61.88
2022-08-05T09:00:53.322Z,61.88
2022-08-05T09:01:53.308Z,67.5
2022-08-05T09:02:53.310Z,73.12
2022-08-05T09:03:53.288Z,67.5
2022-08-05T09:04:53.274Z,67.5
2022-08-05T09:05:53.266Z,67.5
2022-08-05T09:06:53.267Z,73.12
2022-08-05T09:07:53.242Z,73.12
2022-08-05T09:08:53.229Z,78.75
2022-08-05T09:09:53.301Z,84.38
2022-08-05T09:10:53.218Z,90
2022-08-05T09:11:53.219Z,101.25
2022-08-05T09:12:53.220Z,106.88
2022-08-05T09:13:53.180Z,129.38
2022-08-05T09:14:53.164Z,129.38
2022-08-05T09:15:53.180Z,112.5
2022-08-05T09:16:53.177Z,106.88
2022-08-05T09:17:53.139Z,106.88
2022-08-05T09:18:53.131Z,95.62
2022-08-05T09:19:53.177Z,84.38
2022-08-05T09:20:53.125Z,84.38
2022-08-05T09:21:53.128Z,73.12
2022-08-05T09:22:53.075Z,67.5
2022-08-05T09:23:53.076Z,61.88
2022-08-05T09:24:53.052Z,61.88
2022-08-05T09:25:53.086Z,50.62
2022-08-05T09:26:53.044Z,33.75
2022-08-05T09:27:53.052Z,16.88
2022-08-05T09:28:53.012Z,11.25
2022-08-05T09:29:53.014Z,11.25
2022-08-05T09:30:53.022Z,28.12
2022-08-05T09:31:53.008Z,45
2022-08-05T09:32:53.021Z,50.62
2022-08-05T09:33:52.953Z,50.62
2022-08-05T09:34:52.952Z,50.62
2022-08-05T09:35:52.937Z,45
2022-08-05T09:36:52.921Z,45
2022-08-05T09:37:52.919Z,45
2022-08-05T09:38:52.909Z,39.38
2022-08-05T09:39:52.900Z,39.38
2022-08-05T09:40:52.907Z,50.62
2022-08-05T09:41:52.869Z,61.88
2022-08-05T09:42:52.859Z,61.88
2022-08-05T09:43:52.849Z,50.62
2022-08-05T09:44:52.838Z,45
2022-08-05T09:45:52.837Z,39.38
2022-08-05T09:46:52.832Z,45
2022-08-05T09:47:52.844Z,56.25
2022-08-05T09:48:52.809Z,61.88
2022-08-05T09:49:52.788Z,61.88
2022-08-05T09:50:52.777Z,56.25
2022-08-05T09:51:52.781Z,61.88
2022-08-05T09:52:52.775Z,61.88
2022-08-05T09:53:52.753Z,61.88
2022-08-05T09:54:52.737Z,61.88
2022-08-05T09:55:52.724Z,67.5
2022-08-05T09:56:52.711Z,73.12
2022-08-05T09:57:52.714Z,78.75
2022-08-05T09:58:52.691Z,67.5
2022-08-05T09:59:52.708Z,50.62
2022-08-05T10:00:52.672Z,56.25
2022-08-05T10:01:52.656Z,61.88
2022-08-05T10:02:52.646Z,61.88
2022-08-05T10:03:52.637Z,61.88
2022-08-05T10:04:52.628Z,61.88
2022-08-05T10:05:52.621Z,67.5
2022-08-05T10:06:52.616Z,61.88
2022-08-05T10:07:52.592Z,56.25
2022-08-05T10:08:52.590Z,61.88
2022-08-05T10:09:52.577Z,67.5
2022-08-05T10:10:52.561Z,67.5
2022-08-05T10:11:52.552Z,67.5
2022-08-05T10:12:52.540Z,67.5
2022-08-05T10:13:52.544Z,73.12
2022-08-05T10:14:52.523Z,67.5
2022-08-05T10:15:52.524Z,67.5
2022-08-05T10:16:52.505Z,61.88
2022-08-05T10:17:52.495Z,61.88
2022-08-05T10:18:52.481Z,67.5
2022-08-05T10:19:52.465Z,78.75
2022-08-05T10:20:52.460Z,84.38
2022-08-05T10:21:52.448Z,90
2022-08-05T10:22:52.437Z,101.25
2022-08-05T10:23:52.433Z,106.88
2022-08-05T10:24:52.416Z,101.25
2022-08-05T10:25:52.404Z,90
2022-08-05T10:26:52.393Z,84.38
2022-08-05T10:27:52.384Z,84.38
2022-08-05T10:28:52.377Z,84.38
2022-08-05T10:29:52.369Z,78.75
2022-08-05T10:30:52.357Z,78.75
2022-08-05T10:31:52.348Z,78.75
2022-08-05T10:32:52.348Z,78.75
2022-08-05T10:33:52.317Z,84.38
2022-08-05T10:34:52.342Z,84.38
2022-08-05T10:35:52.309Z,84.38
2022-08-05T10:36:52.293Z,78.75
2022-08-05T10:37:52.288Z,78.75
2022-08-05T10:38:52.288Z,73.12
2022-08-05T10:39:52.275Z,67.5
2022-08-05T10:40:52.261Z,61.88
2022-08-05T10:41:52.248Z,56.25
2022-08-05T10:42:52.228Z,50.62
2022-08-05T10:43:52.230Z,50.62
2022-08-05T10:44:52.219Z,50.62
2022-08-05T10:45:52.209Z,50.62
2022-08-05T10:46:52.227Z,56.25
2022-08-05T10:47:52.170Z,56.25
2022-08-05T10:48:52.165Z,56.25
2022-08-05T10:49:52.177Z,56.25
2022-08-05T10:50:52.141Z,50.62
2022-08-05T10:51:52.125Z,50.62
2022-08-05T10:52:52.122Z,56.25
2022-08-05T10:53:52.114Z,67.5
2022-08-05T10:54:52.132Z,78.75
2022-08-05T10:55:52.164Z,84.38
2022-08-05T10:56:52.076Z,84.38
2022-08-05T10:57:52.064Z,73.12
2022-08-05T10:58:52.100Z,67.5
2022-08-05T10:59:52.068Z,67.5
2022-08-05T11:00:52.035Z,67.5
2022-08-05T11:01:52.070Z,67.5
2022-08-05T11:02:52.040Z,61.88
2022-08-05T11:03:52.018Z,61.88
2022-08-05T11:04:52.000Z,61.88
2022-08-05T11:05:52.020Z,50.62
2022-08-05T11:06:51.969Z,39.38
2022-08-05T11:07:51.985Z,33.75
2022-08-05T11:08:51.953Z,39.38
2022-08-05T11:09:51.960Z,39.38
2022-08-05T11:10:51.952Z,39.38
2022-08-05T11:11:51.973Z,45
2022-08-05T11:12:51.910Z,45
2022-08-05T11:13:51.920Z,39.38
2022-08-05T11:14:51.900Z,50.62
2022-08-05T11:15:51.876Z,50.62
2022-08-05T11:16:51.864Z,45
2022-08-05T11:17:51.864Z,45
2022-08-05T11:18:51.881Z,56.25
2022-08-05T11:19:51.844Z,67.5
2022-08-05T11:20:51.827Z,73.12
2022-08-05T11:21:51.827Z,78.75
2022-08-05T11:22:51.822Z,78.75
2022-08-05T11:23:51.803Z,78.75
2022-08-05T11:24:51.821Z,90
2022-08-05T11:25:51.790Z,95.62
2022-08-05T11:26:51.777Z,95.62
2022-08-05T11:27:51.915Z,95.62
2022-08-05T11:28:51.779Z,101.25
2022-08-05T11:29:51.728Z,112.5
2022-08-05T11:30:51.734Z,106.88
2022-08-05T11:31:51.751Z,106.88
2022-08-05T11:32:51.775Z,95.62
2022-08-05T11:33:51.696Z,78.75
2022-08-05T11:34:51.705Z,78.75
2022-08-05T11:35:51.682Z,78.75
2022-08-05T11:36:51.660Z,78.75
2022-08-05T11:37:51.646Z,101.25
2022-08-05T11:38:51.656Z,112.5
2022-08-05T11:39:51.627Z,106.88
2022-08-05T11:40:51.637Z,101.25
2022-08-05T11:41:51.614Z,106.88
2022-08-05T11:42:51.647Z,101.25
2022-08-05T11:43:51.582Z,95.62
2022-08-05T11:44:51.569Z,101.25
2022-08-05T11:45:51.561Z,95.62
2022-08-05T11:46:51.558Z,90
2022-08-05T11:47:51.552Z,90
2022-08-05T11:48:51.533Z,95.62
2022-08-05T11:49:51.534Z,101.25
2022-08-05T11:50:51.562Z,101.25
2022-08-05T11:51:51.495Z,90
2022-08-05T11:52:51.488Z,90
2022-08-05T11:53:51.477Z,95.62
2022-08-05T11:54:51.497Z,90
2022-08-05T11:55:51.459Z,95.62
2022-08-05T11:56:51.540Z,95.62
2022-08-05T11:57:51.433Z,95.62
2022-08-05T11:58:51.426Z,101.25
2022-08-05T11:59:51.457Z,101.25
2022-08-05T12:00:51.432Z,101.25
2022-08-05T12:01:51.395Z,101.25
2022-08-05T12:02:51.385Z,112.5
2022-08-05T12:03:51.377Z,118.12
2022-08-05T12:04:51.356Z,118.12
2022-08-05T12:05:51.374Z,123.75
2022-08-05T12:06:51.341Z,135
2022-08-05T12:07:51.335Z,146.25
2022-08-05T12:08:51.330Z,146.25
2022-08-05T12:09:51.413Z,140.62
2022-08-05T12:10:51.302Z,135
2022-08-05T12:11:51.285Z,135
2022-08-05T12:12:51.285Z,135
2022-08-05T12:13:51.294Z,135
2022-08-05T12:14:51.258Z,129.38
2022-08-05T12:15:51.250Z,135
2022-08-05T12:16:51.240Z,146.25
2022-08-05T12:17:51.227Z,157.5
2022-08-05T12:18:51.269Z,168.75
2022-08-05T12:19:51.200Z,180
2022-08-05T12:20:51.256Z,191.25
2022-08-05T12:21:51.188Z,202.5
2022-08-05T12:22:51.173Z,213.75
2022-08-05T12:23:51.167Z,213.75
2022-08-05T12:24:51.166Z,208.12
2022-08-05T12:25:51.141Z,168.75
2022-08-05T12:26:51.202Z,157.5
2022-08-05T12:27:51.167Z,180
2022-08-05T12:28:51.115Z,208.12
2022-08-05T12:29:51.097Z,230.62
2022-08-05T12:30:51.081Z,225
2022-08-05T12:31:51.079Z,230.62
2022-08-05T12:32:51.063Z,247.5
2022-08-05T12:33:51.071Z,270
2022-08-05T12:34:51.069Z,286.88
2022-08-05T12:35:51.040Z,292.5
2022-08-05T12:36:51.018Z,292.5
2022-08-05T12:37:51.005Z,303.75
2022-08-05T12:38:51.008Z,298.12
2022-08-05T12:39:50.989Z,292.5
2022-08-05T12:40:50.971Z,264.38
2022-08-05T12:41:51.040Z,253.12
2022-08-05T12:42:50.955Z,241.88
2022-08-05T12:43:50.963Z,225
2022-08-05T12:44:50.946Z,225
2022-08-05T12:45:50.932Z,225
2022-08-05T12:46:50.951Z,225
2022-08-05T12:47:50.943Z,219.38
2022-08-05T12:48:50.890Z,219.38
2022-08-05T12:49:51.704Z,213.75
2022-08-05T12:50:50.879Z,202.5
2022-08-05T12:51:50.858Z,180
2022-08-05T12:52:50.857Z,168.75
2022-08-05T12:53:50.832Z,157.5
2022-08-05T12:54:50.856Z,151.88
2022-08-05T12:55:50.814Z,151.88
2022-08-05T12:56:50.798Z,151.88
2022-08-05T12:57:50.808Z,151.88
2022-08-05T12:58:50.772Z,146.25
2022-08-05T12:59:50.770Z,140.62
2022-08-05T13:00:50.756Z,135
2022-08-05T13:01:50.752Z,135
2022-08-05T13:02:50.753Z,129.38
2022-08-05T13:03:50.735Z,129.38
2022-08-05T13:04:50.711Z,135
2022-08-05T13:05:50.698Z,140.62
2022-08-05T13:06:50.690Z,157.5
2022-08-05T13:07:50.674Z,168.75
2022-08-05T13:08:50.676Z,157.5
2022-08-05T13:09:50.672Z,146.25
2022-08-05T13:10:50.680Z,146.25
2022-08-05T13:11:50.635Z,146.25
2022-08-05T13:12:50.620Z,140.62
2022-08-05T13:13:50.614Z,140.62
2022-08-05T13:14:50.613Z,146.25
2022-08-05T13:15:50.731Z,157.5
2022-08-05T13:16:50.579Z,174.38
2022-08-05T13:17:51.212Z,185.62
2022-08-05T13:18:50.558Z,213.75
2022-08-05T13:19:50.576Z,241.88
2022-08-05T13:20:50.566Z,258.75
2022-08-05T13:21:50.551Z,247.5
2022-08-05T13:22:50.526Z,241.88
2022-08-05T13:23:50.525Z,225
2022-08-05T13:24:50.498Z,213.75
2022-08-05T13:25:50.484Z,213.75
2022-08-05T13:26:50.470Z,213.75
2022-08-05T13:27:50.463Z,202.5
2022-08-05T13:28:50.454Z,180
2022-08-05T13:29:50.441Z,163.12
2022-08-05T13:30:51.212Z,151.88
2022-08-05T13:31:50.418Z,146.25
2022-08-05T13:32:50.422Z,151.88
2022-08-05T13:33:50.392Z,151.88
2022-08-05T13:34:50.384Z,157.5
2022-08-05T13:35:50.444Z,163.12